sensor_id;sensor_type;location;lat;lon;timestamp;pressure;altitude;pressure_sealevel;temperature;humidity
43071;BME280;36278;47.952;21.714;2023-05-24T00:01:33;99935.94;;;18.28;100.00
43071;BME280;36278;47.952;21.714;2023-05-24T00:03:59;99938.75;;;18.34;100.00
43071;BME280;36278;47.952;21.714;2023-05-24T00:06:25;99940.91;;;18.39;100.00
43071;BME280;36278;47.952;21.714;2023-05-24T00:08:52;99934.06;;;18.36;100.00
43071;BME280;36278;47.952;21.714;2023-05-24T00:11:19;99938.81;;;18.26;100.00
43071;BME280;36278;47.952;21.714;2023-05-24T00:13:47;99939.63;;;18.27;100.00
43071;BME280;36278;47.952;21.714;2023-05-24T00:16:12;99937.78;;;18.27;100.00
43071;BME280;36278;47.952;21.714;2023-05-24T00:18:38;99926.56;;;18.24;100.00
43071;BME280;36278;47.952;21.714;2023-05-24T00:21:08;99931.09;;;18.23;100.00
43071;BME280;36278;47.952;21.714;2023-05-24T00:23:35;99930.28;;;18.14;100.00
43071;BME280;36278;47.952;21.714;2023-05-24T00:26:06;99932.97;;;18.14;100.00
43071;BME280;36278;47.952;21.714;2023-05-24T00:28:32;99934.16;;;18.12;100.00
43071;BME280;36278;47.952;21.714;2023-05-24T00:30:58;99934.00;;;18.13;100.00
43071;BME280;36278;47.952;21.714;2023-05-24T00:33:23;99940.50;;;18.19;100.00
43071;BME280;36278;47.952;21.714;2023-05-24T00:35:49;99943.84;;;18.21;100.00
43071;BME280;36278;47.952;21.714;2023-05-24T00:38:21;99947.19;;;18.23;100.00
43071;BME280;36278;47.952;21.714;2023-05-24T00:40:46;99940.97;;;18.23;100.00
43071;BME280;36278;47.952;21.714;2023-05-24T00:43:13;99942.19;;;18.20;100.00
43071;BME280;36278;47.952;21.714;2023-05-24T00:45:38;99945.03;;;18.18;100.00
43071;BME280;36278;47.952;21.714;2023-05-24T00:48:04;99954.09;;;18.17;100.00
43071;BME280;36278;47.952;21.714;2023-05-24T00:50:29;99952.75;;;18.13;100.00
43071;BME280;36278;47.952;21.714;2023-05-24T00:52:59;99960.81;;;18.05;100.00
43071;BME280;36278;47.952;21.714;2023-05-24T00:55:27;99963.22;;;18.00;100.00
43071;BME280;36278;47.952;21.714;2023-05-24T00:57:55;99963.06;;;17.93;100.00
43071;BME280;36278;47.952;21.714;2023-05-24T01:00:21;99965.72;;;17.93;100.00
43071;BME280;36278;47.952;21.714;2023-05-24T01:02:47;99977.47;;;17.92;100.00
43071;BME280;36278;47.952;21.714;2023-05-24T01:05:13;99981.13;;;17.91;100.00
43071;BME280;36278;47.952;21.714;2023-05-24T01:15:58;99991.69;;;17.93;100.00
43071;BME280;36278;47.952;21.714;2023-05-24T01:18:30;99978.97;;;17.87;100.00
43071;BME280;36278;47.952;21.714;2023-05-24T01:23:55;99983.19;;;17.73;100.00
43071;BME280;36278;47.952;21.714;2023-05-24T01:29:03;99984.34;;;17.79;100.00
43071;BME280;36278;47.952;21.714;2023-05-24T01:31:29;99983.81;;;17.83;100.00
43071;BME280;36278;47.952;21.714;2023-05-24T01:33:55;99987.19;;;17.85;100.00
43071;BME280;36278;47.952;21.714;2023-05-24T01:36:20;99991.19;;;17.89;100.00
43071;BME280;36278;47.952;21.714;2023-05-24T01:38:47;99991.38;;;17.88;100.00
43071;BME280;36278;47.952;21.714;2023-05-24T01:44:09;99992.88;;;17.82;100.00
43071;BME280;36278;47.952;21.714;2023-05-24T01:46:37;99991.22;;;17.81;100.00
43071;BME280;36278;47.952;21.714;2023-05-24T01:49:25;99991.41;;;17.72;100.00
43071;BME280;36278;47.952;21.714;2023-05-24T01:51:59;99985.84;;;17.65;100.00
43071;BME280;36278;47.952;21.714;2023-05-24T01:54:30;99977.63;;;17.66;100.00
43071;BME280;36278;47.952;21.714;2023-05-24T01:56:57;99979.81;;;17.63;100.00
43071;BME280;36278;47.952;21.714;2023-05-24T01:59:24;99973.13;;;17.59;100.00
43071;BME280;36278;47.952;21.714;2023-05-24T02:01:51;99972.81;;;17.46;100.00
43071;BME280;36278;47.952;21.714;2023-05-24T02:04:17;99967.97;;;17.41;100.00
43071;BME280;36278;47.952;21.714;2023-05-24T02:06:42;99969.63;;;17.34;100.00
43071;BME280;36278;47.952;21.714;2023-05-24T02:09:08;99965.13;;;17.26;100.00
43071;BME280;36278;47.952;21.714;2023-05-24T02:11:33;99973.16;;;17.26;100.00
43071;BME280;36278;47.952;21.714;2023-05-24T02:13:59;99967.66;;;17.28;100.00
43071;BME280;36278;47.952;21.714;2023-05-24T02:16:24;99969.31;;;17.29;100.00
43071;BME280;36278;47.952;21.714;2023-05-24T02:18:51;99973.84;;;17.28;100.00
43071;BME280;36278;47.952;21.714;2023-05-24T02:21:17;99971.16;;;17.28;100.00
43071;BME280;36278;47.952;21.714;2023-05-24T02:23:43;99972.66;;;17.23;100.00
43071;BME280;36278;47.952;21.714;2023-05-24T02:26:08;99971.47;;;17.17;100.00
43071;BME280;36278;47.952;21.714;2023-05-24T02:28:36;99974.66;;;17.13;100.00
43071;BME280;36278;47.952;21.714;2023-05-24T02:31:01;99968.78;;;17.09;100.00
43071;BME280;36278;47.952;21.714;2023-05-24T02:33:27;99970.47;;;17.10;100.00
43071;BME280;36278;47.952;21.714;2023-05-24T02:35:54;99970.47;;;17.10;100.00
43071;BME280;36278;47.952;21.714;2023-05-24T02:38:20;99968.66;;;17.19;100.00
43071;BME280;36278;47.952;21.714;2023-05-24T02:40:45;99964.63;;;17.15;100.00
43071;BME280;36278;47.952;21.714;2023-05-24T02:43:11;99966.97;;;17.09;100.00
43071;BME280;36278;47.952;21.714;2023-05-24T02:45:36;99967.31;;;17.06;100.00
43071;BME280;36278;47.952;21.714;2023-05-24T02:48:02;99966.13;;;17.01;100.00
43071;BME280;36278;47.952;21.714;2023-05-24T02:50:27;99972.81;;;17.05;100.00
43071;BME280;36278;47.952;21.714;2023-05-24T02:52:53;99962.94;;;17.05;100.00
43071;BME280;36278;47.952;21.714;2023-05-24T02:55:18;99968.31;;;17.05;100.00
43071;BME280;36278;47.952;21.714;2023-05-24T02:57:44;99965.47;;;17.07;100.00
43071;BME280;36278;47.952;21.714;2023-05-24T03:00:10;99967.47;;;17.05;100.00
43071;BME280;36278;47.952;21.714;2023-05-24T03:02:35;99965.28;;;17.00;100.00
43071;BME280;36278;47.952;21.714;2023-05-24T03:05:06;99968.13;;;16.99;100.00
43071;BME280;36278;47.952;21.714;2023-05-24T03:07:32;99966.94;;;17.01;100.00
43071;BME280;36278;47.952;21.714;2023-05-24T03:09:57;99962.59;;;17.00;100.00
43071;BME280;36278;47.952;21.714;2023-05-24T03:12:22;99960.09;;;16.91;100.00
43071;BME280;36278;47.952;21.714;2023-05-24T03:14:48;99960.09;;;16.91;100.00
43071;BME280;36278;47.952;21.714;2023-05-24T03:17:13;99965.28;;;16.92;100.00
43071;BME280;36278;47.952;21.714;2023-05-24T03:19:39;99975.97;;;16.92;100.00
43071;BME280;36278;47.952;21.714;2023-05-24T03:22:05;99979.50;;;16.93;100.00
43071;BME280;36278;47.952;21.714;2023-05-24T03:24:30;99981.50;;;16.91;100.00
43071;BME280;36278;47.952;21.714;2023-05-24T03:26:57;99976.16;;;16.91;100.00
43071;BME280;36278;47.952;21.714;2023-05-24T03:29:23;99975.47;;;16.89;100.00
43071;BME280;36278;47.952;21.714;2023-05-24T03:31:48;99976.50;;;16.88;100.00
43071;BME280;36278;47.952;21.714;2023-05-24T03:34:14;99976.97;;;16.91;100.00
43071;BME280;36278;47.952;21.714;2023-05-24T03:36:39;99983.34;;;16.90;100.00
43071;BME280;36278;47.952;21.714;2023-05-24T03:39:04;99984.00;;;16.92;100.00
43071;BME280;36278;47.952;21.714;2023-05-24T03:41:30;99969.78;;;16.92;100.00
43071;BME280;36278;47.952;21.714;2023-05-24T03:43:55;99974.31;;;16.99;100.00
43071;BME280;36278;47.952;21.714;2023-05-24T03:46:21;99977.16;;;17.06;100.00
43071;BME280;36278;47.952;21.714;2023-05-24T03:48:47;99980.50;;;17.08;100.00
43071;BME280;36278;47.952;21.714;2023-05-24T03:51:13;99984.38;;;17.05;100.00
43071;BME280;36278;47.952;21.714;2023-05-24T03:53:38;99983.19;;;17.08;100.00
43071;BME280;36278;47.952;21.714;2023-05-24T03:56:04;99986.53;;;17.10;100.00
43071;BME280;36278;47.952;21.714;2023-05-24T03:58:29;99987.72;;;17.16;100.00
43071;BME280;36278;47.952;21.714;2023-05-24T04:00:55;99989.56;;;17.15;100.00
43071;BME280;36278;47.952;21.714;2023-05-24T04:03:20;99991.38;;;17.15;100.00
43071;BME280;36278;47.952;21.714;2023-05-24T04:05:46;99995.25;;;17.20;100.00
43071;BME280;36278;47.952;21.714;2023-05-24T04:08:11;99995.56;;;17.17;100.00
43071;BME280;36278;47.952;21.714;2023-05-24T04:10:40;99995.56;;;17.17;100.00
43071;BME280;36278;47.952;21.714;2023-05-24T04:13:05;100006.28;;;17.17;100.00
43071;BME280;36278;47.952;21.714;2023-05-24T04:15:30;100001.59;;;17.11;100.00
43071;BME280;36278;47.952;21.714;2023-05-24T04:17:57;100007.94;;;17.10;100.00
43071;BME280;36278;47.952;21.714;2023-05-24T04:20:22;100012.31;;;17.11;100.00
43071;BME280;36278;47.952;21.714;2023-05-24T04:22:52;100012.97;;;17.13;100.00
43071;BME280;36278;47.952;21.714;2023-05-24T04:25:19;100019.84;;;17.16;100.00
43071;BME280;36278;47.952;21.714;2023-05-24T04:27:44;100006.78;;;17.13;100.00
43071;BME280;36278;47.952;21.714;2023-05-24T04:30:13;100025.34;;;17.14;100.00
43071;BME280;36278;47.952;21.714;2023-05-24T04:32:40;100026.53;;;17.20;100.00
43071;BME280;36278;47.952;21.714;2023-05-24T04:35:06;100029.22;;;17.20;100.00
43071;BME280;36278;47.952;21.714;2023-05-24T04:37:32;100035.06;;;17.23;100.00
43071;BME280;36278;47.952;21.714;2023-05-24T04:39:58;100035.22;;;17.22;100.00
43071;BME280;36278;47.952;21.714;2023-05-24T04:42:23;100039.41;;;17.24;100.00
43071;BME280;36278;47.952;21.714;2023-05-24T04:44:49;100043.75;;;17.25;100.00
43071;BME280;36278;47.952;21.714;2023-05-24T04:47:14;100049.13;;;17.33;100.00
43071;BME280;36278;47.952;21.714;2023-05-24T04:49:40;100048.28;;;17.33;100.00
43071;BME280;36278;47.952;21.714;2023-05-24T04:52:06;100042.63;;;17.36;100.00
43071;BME280;36278;47.952;21.714;2023-05-24T04:54:32;100049.47;;;17.38;100.00
43071;BME280;36278;47.952;21.714;2023-05-24T04:56:58;100045.78;;;17.40;100.00
43071;BME280;36278;47.952;21.714;2023-05-24T04:59:23;100045.13;;;17.46;100.00
43071;BME280;36278;47.952;21.714;2023-05-24T05:01:49;100044.78;;;17.49;100.00
43071;BME280;36278;47.952;21.714;2023-05-24T05:04:14;100049.66;;;17.45;100.00
43071;BME280;36278;47.952;21.714;2023-05-24T05:06:41;100047.81;;;17.46;100.00
43071;BME280;36278;47.952;21.714;2023-05-24T05:09:08;100045.13;;;17.46;100.00
43071;BME280;36278;47.952;21.714;2023-05-24T05:11:35;100044.28;;;17.45;100.00
43071;BME280;36278;47.952;21.714;2023-05-24T05:14:01;100041.63;;;17.45;100.00
43071;BME280;36278;47.952;21.714;2023-05-24T05:16:27;100052.81;;;17.49;100.00
43071;BME280;36278;47.952;21.714;2023-05-24T05:18:52;100050.13;;;17.49;100.00
43071;BME280;36278;47.952;21.714;2023-05-24T05:21:17;100058.16;;;17.49;100.00
43071;BME280;36278;47.952;21.714;2023-05-24T05:23:44;100048.63;;;17.46;100.00
43071;BME280;36278;47.952;21.714;2023-05-24T05:26:09;100046.31;;;17.51;100.00
43071;BME280;36278;47.952;21.714;2023-05-24T05:28:35;100047.47;;;17.57;100.00
43071;BME280;36278;47.952;21.714;2023-05-24T05:31:01;100049.97;;;17.50;100.00
43071;BME280;36278;47.952;21.714;2023-05-24T05:33:27;100054.47;;;17.50;100.00
43071;BME280;36278;47.952;21.714;2023-05-24T05:35:52;100058.50;;;17.54;100.00
43071;BME280;36278;47.952;21.714;2023-05-24T05:38:18;100049.00;;;17.51;100.00
43071;BME280;36278;47.952;21.714;2023-05-24T05:40:43;100057.50;;;17.55;100.00
43071;BME280;36278;47.952;21.714;2023-05-24T05:43:09;100057.34;;;17.56;100.00
43071;BME280;36278;47.952;21.714;2023-05-24T05:45:34;100049.81;;;17.60;100.00
43071;BME280;36278;47.952;21.714;2023-05-24T05:48:00;100051.81;;;17.66;100.00
43071;BME280;36278;47.952;21.714;2023-05-24T05:50:25;100048.97;;;17.68;100.00
43071;BME280;36278;47.952;21.714;2023-05-24T05:52:50;100049.16;;;17.74;100.00
43071;BME280;36278;47.952;21.714;2023-05-24T05:55:16;100047.16;;;17.76;100.00
43071;BME280;36278;47.952;21.714;2023-05-24T05:57:41;100056.03;;;17.85;100.00
43071;BME280;36278;47.952;21.714;2023-05-24T06:00:08;100056.34;;;17.90;100.00
43071;BME280;36278;47.952;21.714;2023-05-24T06:02:34;100058.81;;;18.00;100.00
43071;BME280;36278;47.952;21.714;2023-05-24T06:04:59;100053.47;;;18.00;100.00
43071;BME280;36278;47.952;21.714;2023-05-24T06:07:25;100067.03;;;17.98;100.00
43071;BME280;36278;47.952;21.714;2023-05-24T06:09:51;100063.34;;;17.99;100.00
43071;BME280;36278;47.952;21.714;2023-05-24T06:12:18;100066.53;;;18.11;100.00
43071;BME280;36278;47.952;21.714;2023-05-24T06:14:44;100070.88;;;18.12;100.00
43071;BME280;36278;47.952;21.714;2023-05-24T06:17:12;100070.53;;;18.15;100.00
43071;BME280;36278;47.952;21.714;2023-05-24T06:19:38;100080.75;;;18.19;100.00
43071;BME280;36278;47.952;21.714;2023-05-24T06:22:04;100085.75;;;18.23;100.00
43071;BME280;36278;47.952;21.714;2023-05-24T06:24:30;100091.28;;;18.29;100.00
43071;BME280;36278;47.952;21.714;2023-05-24T06:27:00;100078.41;;;18.25;100.00
43071;BME280;36278;47.952;21.714;2023-05-24T06:29:26;100086.94;;;18.28;100.00
43071;BME280;36278;47.952;21.714;2023-05-24T06:31:52;100083.75;;;18.33;100.00
43071;BME280;36278;47.952;21.714;2023-05-24T06:34:19;100074.72;;;18.26;100.00
43071;BME280;36278;47.952;21.714;2023-05-24T06:36:47;100093.44;;;18.42;100.00
43071;BME280;36278;47.952;21.714;2023-05-24T06:39:15;100101.63;;;18.48;100.00
43071;BME280;36278;47.952;21.714;2023-05-24T06:41:41;100098.28;;;18.46;100.00
43071;BME280;36278;47.952;21.714;2023-05-24T06:44:07;100107.13;;;18.55;100.00
43071;BME280;36278;47.952;21.714;2023-05-24T06:46:33;100110.97;;;18.61;100.00
43071;BME280;36278;47.952;21.714;2023-05-24T06:48:59;100106.94;;;18.65;100.00
43071;BME280;36278;47.952;21.714;2023-05-24T06:51:24;100107.63;;;18.67;100.00
43071;BME280;36278;47.952;21.714;2023-05-24T06:53:50;100117.50;;;18.74;100.00
43071;BME280;36278;47.952;21.714;2023-05-24T06:56:16;100114.31;;;18.71;99.95
43071;BME280;36278;47.952;21.714;2023-05-24T06:58:42;100116.34;;;18.69;99.48
43071;BME280;36278;47.952;21.714;2023-05-24T07:01:08;100118.66;;;18.72;100.00
43071;BME280;36278;47.952;21.714;2023-05-24T07:03:34;100131.94;;;18.73;100.00
43071;BME280;36278;47.952;21.714;2023-05-24T07:06:00;100130.94;;;18.74;100.00
43071;BME280;36278;47.952;21.714;2023-05-24T07:08:26;100135.28;;;18.75;100.00
43071;BME280;36278;47.952;21.714;2023-05-24T07:10:55;100133.75;;;18.73;100.00
43071;BME280;36278;47.952;21.714;2023-05-24T07:13:21;100140.50;;;18.69;100.00
43071;BME280;36278;47.952;21.714;2023-05-24T07:15:47;100142.50;;;18.59;100.00
43071;BME280;36278;47.952;21.714;2023-05-24T07:18:13;100131.66;;;18.44;100.00
43071;BME280;36278;47.952;21.714;2023-05-24T07:20:38;100141.38;;;18.45;100.00
43071;BME280;36278;47.952;21.714;2023-05-24T07:23:04;100140.53;;;18.44;100.00
43071;BME280;36278;47.952;21.714;2023-05-24T07:25:31;100135.16;;;18.44;100.00
43071;BME280;36278;47.952;21.714;2023-05-24T07:27:58;100147.38;;;18.47;100.00
43071;BME280;36278;47.952;21.714;2023-05-24T07:30:24;100143.56;;;18.49;100.00
43071;BME280;36278;47.952;21.714;2023-05-24T07:32:49;100140.88;;;18.49;100.00
43071;BME280;36278;47.952;21.714;2023-05-24T07:35:16;100149.06;;;18.48;100.00
43071;BME280;36278;47.952;21.714;2023-05-24T07:37:41;100150.59;;;18.42;100.00
43071;BME280;36278;47.952;21.714;2023-05-24T07:40:07;100152.09;;;18.45;100.00
43071;BME280;36278;47.952;21.714;2023-05-24T07:42:40;100153.59;;;18.47;100.00
43071;BME280;36278;47.952;21.714;2023-05-24T07:45:06;100158.97;;;18.47;100.00
43071;BME280;36278;47.952;21.714;2023-05-24T07:47:33;100163.31;;;18.48;100.00
43071;BME280;36278;47.952;21.714;2023-05-24T07:49:59;100163.47;;;18.47;100.00
43071;BME280;36278;47.952;21.714;2023-05-24T07:52:24;100162.16;;;18.51;100.00
43071;BME280;36278;47.952;21.714;2023-05-24T07:54:50;100165.50;;;18.53;100.00
43071;BME280;36278;47.952;21.714;2023-05-24T07:57:19;100166.84;;;18.57;100.00
43071;BME280;36278;47.952;21.714;2023-05-24T07:59:46;100173.34;;;18.63;100.00
43071;BME280;36278;47.952;21.714;2023-05-24T08:02:12;100168.53;;;18.66;100.00
43071;BME280;36278;47.952;21.714;2023-05-24T08:04:39;100173.53;;;18.69;100.00
43071;BME280;36278;47.952;21.714;2023-05-24T08:07:05;100175.00;;;18.80;100.00
43071;BME280;36278;47.952;21.714;2023-05-24T08:09:31;100179.22;;;18.83;100.00
43071;BME280;36278;47.952;21.714;2023-05-24T08:12:02;100173.97;;;18.81;100.00
43071;BME280;36278;47.952;21.714;2023-05-24T08:14:28;100173.03;;;18.74;100.00
43071;BME280;36278;47.952;21.714;2023-05-24T08:16:53;100170.00;;;18.69;100.00
43071;BME280;36278;47.952;21.714;2023-05-24T08:19:19;100186.75;;;18.79;100.00
43071;BME280;36278;47.952;21.714;2023-05-24T08:21:46;100185.22;;;18.85;100.00
43071;BME280;36278;47.952;21.714;2023-05-24T08:24:12;100191.06;;;18.88;99.56
43071;BME280;36278;47.952;21.714;2023-05-24T08:26:38;100193.91;;;18.95;99.60
43071;BME280;36278;47.952;21.714;2023-05-24T08:29:04;100187.16;;;19.07;99.15
43071;BME280;36278;47.952;21.714;2023-05-24T08:31:30;100187.97;;;19.16;98.09
43071;BME280;36278;47.952;21.714;2023-05-24T08:34:00;100190.94;;;19.21;98.95
43071;BME280;36278;47.952;21.714;2023-05-24T08:36:27;100202.38;;;19.23;96.95
43071;BME280;36278;47.952;21.714;2023-05-24T08:38:52;100200.19;;;19.18;97.19
43071;BME280;36278;47.952;21.714;2023-05-24T08:41:18;100197.47;;;19.26;96.37
43071;BME280;36278;47.952;21.714;2023-05-24T08:43:45;100201.47;;;19.39;96.45
43071;BME280;36278;47.952;21.714;2023-05-24T08:46:13;100202.22;;;19.55;96.19
43071;BME280;36278;47.952;21.714;2023-05-24T08:48:46;100217.81;;;19.60;97.09
43071;BME280;36278;47.952;21.714;2023-05-24T08:51:15;100219.16;;;19.56;97.30
43071;BME280;36278;47.952;21.714;2023-05-24T08:53:45;100217.19;;;19.50;97.31
43071;BME280;36278;47.952;21.714;2023-05-24T08:56:17;100223.00;;;19.62;96.70
43071;BME280;36278;47.952;21.714;2023-05-24T08:58:44;100226.00;;;19.67;97.46
43071;BME280;36278;47.952;21.714;2023-05-24T09:01:13;100228.28;;;19.78;95.96
43071;BME280;36278;47.952;21.714;2023-05-24T09:03:39;100221.44;;;19.98;93.57
43071;BME280;36278;47.952;21.714;2023-05-24T09:06:08;100223.50;;;20.11;93.79
43071;BME280;36278;47.952;21.714;2023-05-24T09:08:34;100218.75;;;20.36;89.04
43071;BME280;36278;47.952;21.714;2023-05-24T09:11:02;100221.41;;;20.44;89.59
43071;BME280;36278;47.952;21.714;2023-05-24T09:13:30;100219.41;;;20.46;91.60
43071;BME280;36278;47.952;21.714;2023-05-24T09:15:58;100226.91;;;20.28;92.78
43071;BME280;36278;47.952;21.714;2023-05-24T09:18:24;100227.22;;;20.33;86.23
43071;BME280;36278;47.952;21.714;2023-05-24T09:20:50;100237.13;;;20.55;87.78
43071;BME280;36278;47.952;21.714;2023-05-24T09:23:16;100235.47;;;20.54;86.55
43071;BME280;36278;47.952;21.714;2023-05-24T09:25:46;100237.81;;;20.72;86.00
43071;BME280;36278;47.952;21.714;2023-05-24T09:28:17;100238.03;;;20.85;84.35
43071;BME280;36278;47.952;21.714;2023-05-24T09:30:44;100247.28;;;20.97;82.38
43071;BME280;36278;47.952;21.714;2023-05-24T09:33:10;100251.31;;;21.02;80.98
43071;BME280;36278;47.952;21.714;2023-05-24T09:35:41;100246.75;;;20.87;81.14
43071;BME280;36278;47.952;21.714;2023-05-24T09:38:16;100241.81;;;20.91;82.50
43071;BME280;36278;47.952;21.714;2023-05-24T09:40:45;100241.47;;;20.94;84.24
43071;BME280;36278;47.952;21.714;2023-05-24T09:43:11;100239.56;;;21.09;83.50
43071;BME280;36278;47.952;21.714;2023-05-24T09:45:45;100244.50;;;20.91;84.69
43071;BME280;36278;47.952;21.714;2023-05-24T09:48:12;100239.66;;;21.01;83.75
43071;BME280;36278;47.952;21.714;2023-05-24T09:50:38;100246.09;;;21.15;81.79
43071;BME280;36278;47.952;21.714;2023-05-24T09:53:04;100250.94;;;21.19;81.61
43071;BME280;36278;47.952;21.714;2023-05-24T09:55:35;100244.44;;;21.29;81.55
43071;BME280;36278;47.952;21.714;2023-05-24T09:58:06;100243.88;;;21.18;83.04
43071;BME280;36278;47.952;21.714;2023-05-24T10:00:40;100245.47;;;21.27;83.90
43071;BME280;36278;47.952;21.714;2023-05-24T10:03:08;100246.13;;;21.30;82.07
43071;BME280;36278;47.952;21.714;2023-05-24T10:05:36;100244.06;;;21.32;81.63
43071;BME280;36278;47.952;21.714;2023-05-24T10:08:02;100244.44;;;21.29;82.02
43071;BME280;36278;47.952;21.714;2023-05-24T10:10:32;100238.19;;;21.13;82.30
43071;BME280;36278;47.952;21.714;2023-05-24T10:12:58;100249.25;;;21.18;84.65
43071;BME280;36278;47.952;21.714;2023-05-24T10:15:24;100245.53;;;21.05;83.77
43071;BME280;36278;47.952;21.714;2023-05-24T10:17:51;100243.38;;;21.00;84.66
43071;BME280;36278;47.952;21.714;2023-05-24T10:20:17;100251.28;;;20.87;84.22
43071;BME280;36278;47.952;21.714;2023-05-24T10:22:45;100249.16;;;20.97;82.22
43071;BME280;36278;47.952;21.714;2023-05-24T10:25:16;100238.09;;;20.92;81.87
43071;BME280;36278;47.952;21.714;2023-05-24T10:27:48;100241.06;;;20.82;82.52
43071;BME280;36278;47.952;21.714;2023-05-24T10:30:23;100253.41;;;20.91;82.96
43071;BME280;36278;47.952;21.714;2023-05-24T10:32:52;100248.69;;;21.08;82.72
43071;BME280;36278;47.952;21.714;2023-05-24T10:35:21;100236.44;;;21.06;81.51
43071;BME280;36278;47.952;21.714;2023-05-24T10:37:48;100242.94;;;21.11;80.55
43071;BME280;36278;47.952;21.714;2023-05-24T10:40:18;100246.56;;;21.18;80.75
43071;BME280;36278;47.952;21.714;2023-05-24T10:42:47;100246.13;;;21.30;78.97
43071;BME280;36278;47.952;21.714;2023-05-24T10:45:31;100240.25;;;21.26;79.36
43071;BME280;36278;47.952;21.714;2023-05-24T10:48:06;100245.63;;;21.11;79.41
43071;BME280;36278;47.952;21.714;2023-05-24T10:50:32;100244.31;;;21.22;78.70
43071;BME280;36278;47.952;21.714;2023-05-24T10:53:27;100242.25;;;21.24;79.77
43071;BME280;36278;47.952;21.714;2023-05-24T10:56:02;100243.59;;;21.43;78.57
43071;BME280;36278;47.952;21.714;2023-05-24T11:00:57;100243.66;;;21.49;76.87
43071;BME280;36278;47.952;21.714;2023-05-24T11:03:23;100241.56;;;21.66;74.78
43071;BME280;36278;47.952;21.714;2023-05-24T11:08:22;100238.16;;;21.58;76.57
43071;BME280;36278;47.952;21.714;2023-05-24T11:11:07;100248.69;;;21.52;76.96
43071;BME280;36278;47.952;21.714;2023-05-24T11:13:36;100242.34;;;21.60;75.95
43071;BME280;36278;47.952;21.714;2023-05-24T11:16:03;100243.81;;;21.63;75.29
43071;BME280;36278;47.952;21.714;2023-05-24T11:18:29;100246.44;;;21.56;77.16
43071;BME280;36278;47.952;21.714;2023-05-24T11:20:55;100241.31;;;21.61;76.25
43071;BME280;36278;47.952;21.714;2023-05-24T11:23:21;100235.00;;;21.69;76.32
43071;BME280;36278;47.952;21.714;2023-05-24T11:25:47;100237.22;;;21.65;76.58
43071;BME280;36278;47.952;21.714;2023-05-24T11:28:13;100241.69;;;21.58;76.97
43071;BME280;36278;47.952;21.714;2023-05-24T11:30:43;100231.50;;;21.53;77.71
43071;BME280;36278;47.952;21.714;2023-05-24T11:33:22;100231.75;;;21.59;76.77
43071;BME280;36278;47.952;21.714;2023-05-24T11:35:53;100227.84;;;21.61;76.23
43071;BME280;36278;47.952;21.714;2023-05-24T11:38:19;100230.44;;;21.69;75.85
43071;BME280;36278;47.952;21.714;2023-05-24T11:40:47;100228.03;;;22.17;73.88
43071;BME280;36278;47.952;21.714;2023-05-24T11:43:16;100217.09;;;23.09;70.47
43071;BME280;36278;47.952;21.714;2023-05-24T11:45:43;100209.72;;;23.31;68.71
43071;BME280;36278;47.952;21.714;2023-05-24T11:48:09;100216.81;;;23.32;68.90
43071;BME280;36278;47.952;21.714;2023-05-24T11:50:43;100216.75;;;23.67;66.79
43071;BME280;36278;47.952;21.714;2023-05-24T11:53:13;100213.03;;;23.81;64.92
43071;BME280;36278;47.952;21.714;2023-05-24T11:55:40;100217.06;;;23.50;67.32
43071;BME280;36278;47.952;21.714;2023-05-24T11:58:10;100215.16;;;23.38;65.72
43071;BME280;36278;47.952;21.714;2023-05-24T12:00:38;100212.69;;;23.02;67.58
43071;BME280;36278;47.952;21.714;2023-05-24T12:03:04;100214.63;;;22.52;70.15
43071;BME280;36278;47.952;21.714;2023-05-24T12:05:32;100215.06;;;22.55;68.80
43071;BME280;36278;47.952;21.714;2023-05-24T12:10:33;100210.25;;;22.51;69.96
43071;BME280;36278;47.952;21.714;2023-05-24T12:13:00;100214.09;;;22.35;71.11
43071;BME280;36278;47.952;21.714;2023-05-24T12:15:27;100214.63;;;22.24;71.73
43071;BME280;36278;47.952;21.714;2023-05-24T12:17:53;100217.88;;;22.19;71.60
43071;BME280;36278;47.952;21.714;2023-05-24T12:20:19;100223.47;;;22.18;69.80
43071;BME280;36278;47.952;21.714;2023-05-24T12:22:53;100226.53;;;22.15;69.82
43071;BME280;36278;47.952;21.714;2023-05-24T12:25:21;100224.06;;;21.98;70.18
43071;BME280;36278;47.952;21.714;2023-05-24T12:27:54;100219.59;;;22.05;69.55
43071;BME280;36278;47.952;21.714;2023-05-24T12:30:23;100228.19;;;21.94;69.86
43071;BME280;36278;47.952;21.714;2023-05-24T12:32:50;100225.31;;;21.96;68.96
43071;BME280;36278;47.952;21.714;2023-05-24T12:35:18;100223.38;;;21.90;70.32
43071;BME280;36278;47.952;21.714;2023-05-24T12:37:44;100228.72;;;21.83;71.53
43071;BME280;36278;47.952;21.714;2023-05-24T12:40:17;100225.03;;;21.69;75.04
43071;BME280;36278;47.952;21.714;2023-05-24T12:42:52;100218.28;;;21.59;76.68
43071;BME280;36278;47.952;21.714;2023-05-24T12:45:21;100208.81;;;21.48;78.36
43071;BME280;36278;47.952;21.714;2023-05-24T12:47:53;100213.38;;;21.47;78.14
43071;BME280;36278;47.952;21.714;2023-05-24T12:50:21;100216.91;;;21.48;78.40
43071;BME280;36278;47.952;21.714;2023-05-24T12:52:48;100201.94;;;21.45;77.49
43071;BME280;36278;47.952;21.714;2023-05-24T12:55:18;100206.31;;;21.46;76.49
43071;BME280;36278;47.952;21.714;2023-05-24T12:57:44;100205.47;;;21.46;77.66
43071;BME280;36278;47.952;21.714;2023-05-24T13:00:17;100208.16;;;21.46;77.38
43071;BME280;36278;47.952;21.714;2023-05-24T13:02:43;100203.22;;;21.49;77.01